createdAt,value
2018-08-19T00:02:16.535Z,7.47
2018-08-19T00:04:59.796Z,7.20
2018-08-19T00:07:28.973Z,7.53
2018-08-19T00:09:58.483Z,6.80
2018-08-19T00:12:37.569Z,7.00
2018-08-19T00:15:07.033Z,6.50
2018-08-19T00:17:36.268Z,6.70
2018-08-19T00:20:08.446Z,6.40
2018-08-19T00:22:37.718Z,6.57
2018-08-19T00:25:07.072Z,6.03
2018-08-19T00:27:37.384Z,4.93
2018-08-19T00:30:08.475Z,5.47
2018-08-19T00:32:38.145Z,5.40
2018-08-19T00:35:07.585Z,4.73
2018-08-19T00:37:36.888Z,4.77
2018-08-19T00:40:10.500Z,4.90
2018-08-19T00:42:39.670Z,5.23
2018-08-19T00:45:08.892Z,4.93
2018-08-19T00:47:38.022Z,4.20
2018-08-19T00:50:07.482Z,4.90
2018-08-19T00:52:38.778Z,4.80
2018-08-19T00:55:08.255Z,4.63
2018-08-19T00:57:39.351Z,4.87
2018-08-19T01:00:08.738Z,5.40
2018-08-19T01:02:37.978Z,4.63
2018-08-19T01:05:07.306Z,5.00
2018-08-19T01:07:36.402Z,4.83
2018-08-19T01:10:05.854Z,4.83
2018-08-19T01:12:35.186Z,4.87
2018-08-19T01:15:05.142Z,5.07
2018-08-19T01:17:39.996Z,4.73
2018-08-19T01:20:10.261Z,4.83
2018-08-19T01:22:41.258Z,5.27
2018-08-19T01:25:12.283Z,4.70
2018-08-19T01:27:41.409Z,4.73
2018-08-19T01:30:15.422Z,5.00
2018-08-19T01:32:44.790Z,4.53
2018-08-19T01:35:14.008Z,4.97
2018-08-19T01:37:43.462Z,4.90
2018-08-19T01:40:16.832Z,5.00
2018-08-19T01:42:46.662Z,4.57
2018-08-19T01:45:15.834Z,4.93
2018-08-19T01:47:45.125Z,4.63
2018-08-19T01:50:17.228Z,4.83
2018-08-19T01:52:48.977Z,5.10
2018-08-19T01:55:19.282Z,5.07
2018-08-19T01:57:50.241Z,5.10
2018-08-19T02:00:19.848Z,4.70
2018-08-19T02:02:57.227Z,5.37
2018-08-19T02:05:27.083Z,5.33
2018-08-19T02:07:58.336Z,5.00
2018-08-19T02:10:28.349Z,5.10
2018-08-19T02:12:58.530Z,5.40
2018-08-19T02:15:28.994Z,4.60
2018-08-19T02:18:01.444Z,4.77
2018-08-19T02:20:38.767Z,5.63
2018-08-19T02:23:09.740Z,5.47
2018-08-19T02:25:43.884Z,4.70
2018-08-19T02:28:14.094Z,5.13
2018-08-19T02:30:52.335Z,5.63
2018-08-19T02:33:23.129Z,5.33
2018-08-19T02:35:57.364Z,5.57
2018-08-19T02:38:26.617Z,5.00
2018-08-19T02:40:56.022Z,5.33
2018-08-19T02:43:25.397Z,5.47
2018-08-19T02:45:54.646Z,5.40
2018-08-19T02:48:44.566Z,4.80
2018-08-19T02:51:14.977Z,5.13
2018-08-19T02:53:46.392Z,5.03
2018-08-19T02:56:16.460Z,5.37
2018-08-19T02:58:46.927Z,4.90
2018-08-19T03:01:17.076Z,5.23
2018-08-19T03:03:46.292Z,5.20
2018-08-19T03:06:15.722Z,5.20
2018-08-19T03:08:50.730Z,4.73
2018-08-19T03:11:21.676Z,5.20
2018-08-19T03:13:51.054Z,5.10
2018-08-19T03:16:20.238Z,4.93
2018-08-19T03:18:51.188Z,5.30
2018-08-19T03:21:21.495Z,5.53
2018-08-19T03:23:52.622Z,4.90
2018-08-19T03:26:21.930Z,5.07
2018-08-19T03:28:51.101Z,5.23
2018-08-19T03:31:21.216Z,5.30
2018-08-19T03:33:50.598Z,5.40
2018-08-19T03:36:19.896Z,5.60
2018-08-19T03:38:49.113Z,5.73
2018-08-19T03:41:18.495Z,5.20
2018-08-19T03:43:54.816Z,5.40
2018-08-19T03:46:24.292Z,5.40
2018-08-19T03:48:53.467Z,4.63
2018-08-19T03:51:22.678Z,5.70
2018-08-19T03:53:52.137Z,5.80
2018-08-19T03:56:26.509Z,5.70
2018-08-19T03:59:00.093Z,5.10
2018-08-19T04:01:39.537Z,6.20
2018-08-19T04:04:09.161Z,5.97
2018-08-19T04:06:40.618Z,6.77
2018-08-19T04:09:09.764Z,5.23
2018-08-19T04:11:38.922Z,4.87
2018-08-19T04:14:25.911Z,6.13
2018-08-19T04:16:57.285Z,5.40
2018-08-19T04:19:27.758Z,5.80
2018-08-19T04:22:05.023Z,5.37
2018-08-19T04:24:35.821Z,6.20
2018-08-19T04:27:07.139Z,6.57
2018-08-19T04:29:37.404Z,6.47
2018-08-19T04:32:16.935Z,5.83
2018-08-19T04:34:47.146Z,6.50
2018-08-19T04:37:16.788Z,6.23
2018-08-19T04:39:47.017Z,6.43
2018-08-19T04:42:17.599Z,6.70
2018-08-19T04:44:47.253Z,6.03
2018-08-19T04:47:28.730Z,6.93
2018-08-19T04:49:59.410Z,6.43
2018-08-19T04:52:30.086Z,6.10
2018-08-19T04:55:00.801Z,5.97
2018-08-19T04:57:30.754Z,5.93
2018-08-19T05:00:02.466Z,6.40
2018-08-19T05:02:33.243Z,6.43
2018-08-19T05:05:03.231Z,6.07
2018-08-19T05:07:34.192Z,6.40
2018-08-19T05:10:04.738Z,5.97
2018-08-19T05:12:35.528Z,6.40
2018-08-19T05:15:06.481Z,6.60
2018-08-19T05:17:37.208Z,5.70
2018-08-19T05:20:17.712Z,5.70
2018-08-19T05:22:48.146Z,6.53
2018-08-19T05:25:18.187Z,5.73
2018-08-19T05:28:09.947Z,5.97
2018-08-19T05:30:39.703Z,5.40
2018-08-19T05:33:11.467Z,6.07
2018-08-19T05:35:41.495Z,5.60
2018-08-19T05:38:11.574Z,5.47
2018-08-19T05:40:53.361Z,6.43
2018-08-19T05:43:24.199Z,5.97
2018-08-19T05:45:54.597Z,6.00
2018-08-19T05:48:24.721Z,6.07
2018-08-19T05:50:55.285Z,5.33
2018-08-19T05:53:25.001Z,6.27
2018-08-19T05:55:54.593Z,5.83
2018-08-19T05:58:24.449Z,6.20
2018-08-19T06:00:59.442Z,6.00
2018-08-19T06:03:30.731Z,5.80
2018-08-19T06:06:00.825Z,5.50
2018-08-19T06:08:31.160Z,5.80
2018-08-19T06:11:01.126Z,6.70
2018-08-19T06:13:31.204Z,6.10
2018-08-19T06:16:02.740Z,5.90
2018-08-19T06:18:33.499Z,6.53
2018-08-19T06:21:04.253Z,5.07
2018-08-19T06:23:34.433Z,4.97
2018-08-19T06:26:04.578Z,4.80
2018-08-19T06:28:34.917Z,4.83
2018-08-19T06:31:04.971Z,5.43
2018-08-19T06:33:37.373Z,5.20
2018-08-19T06:36:07.528Z,5.13
2018-08-19T06:38:37.807Z,6.30
2018-08-19T06:41:08.269Z,5.67
2018-08-19T06:43:38.034Z,5.23
2018-08-19T06:46:08.831Z,5.03
2018-08-19T06:48:38.836Z,5.53
2018-08-19T06:51:08.715Z,5.30
2018-08-19T06:53:38.841Z,6.00
2018-08-19T06:56:08.777Z,5.53
2018-08-19T06:58:39.660Z,6.67
2018-08-19T07:01:09.855Z,6.10
2018-08-19T07:03:44.911Z,6.00
2018-08-19T07:06:14.954Z,5.43
2018-08-19T07:08:45.053Z,5.63
2018-08-19T07:11:15.112Z,6.03
2018-08-19T07:13:46.869Z,5.97
2018-08-19T07:16:18.751Z,7.47
2018-08-19T07:18:49.406Z,8.10
2018-08-19T07:21:19.548Z,8.00
2018-08-19T07:23:49.887Z,7.10
2018-08-19T07:26:25.432Z,8.20
2018-08-19T07:28:55.241Z,7.73
2018-08-19T07:31:25.398Z,8.67
2018-08-19T07:33:54.918Z,8.43
2018-08-19T07:36:24.797Z,9.60
2018-08-19T07:38:55.036Z,9.80
2018-08-19T07:41:26.862Z,7.37
2018-08-19T07:43:57.252Z,9.50
2018-08-19T07:46:27.209Z,9.87
2018-08-19T07:48:59.474Z,9.47
2018-08-19T07:51:30.419Z,9.47
2018-08-19T07:54:00.730Z,8.20
2018-08-19T07:56:30.928Z,8.60
2018-08-19T07:59:07.174Z,8.23
2018-08-19T08:01:38.560Z,9.13
2018-08-19T08:04:09.581Z,8.80
2018-08-19T08:06:39.495Z,9.20
2018-08-19T08:09:10.929Z,9.07
2018-08-19T08:11:40.756Z,7.97
2018-08-19T08:14:10.582Z,8.70
2018-08-19T08:16:45.462Z,7.00
2018-08-19T08:19:15.599Z,7.40
2018-08-19T08:21:46.029Z,7.77
2018-08-19T08:24:16.488Z,7.13
2018-08-19T08:26:52.609Z,7.03
2018-08-19T08:29:24.411Z,7.50
2018-08-19T08:31:57.350Z,7.10
2018-08-19T08:34:28.806Z,7.80
2018-08-19T08:37:02.212Z,7.37
2018-08-19T08:39:33.658Z,6.57
2018-08-19T08:42:03.324Z,6.20
2018-08-19T08:44:33.397Z,6.83
2018-08-19T08:47:06.042Z,6.90
2018-08-19T08:49:41.132Z,6.53
2018-08-19T08:52:22.853Z,5.93
2018-08-19T08:54:53.303Z,6.30
2018-08-19T08:57:24.220Z,6.57
2018-08-19T08:59:54.524Z,6.60
2018-08-19T09:02:24.647Z,6.93
2018-08-19T09:04:55.758Z,7.90
2018-08-19T09:07:27.326Z,7.10
2018-08-19T09:09:57.571Z,5.77
2018-08-19T09:12:38.251Z,5.70
2018-08-19T09:15:08.242Z,5.67
2018-08-19T09:17:37.951Z,5.87
2018-08-19T09:20:09.599Z,6.50
2018-08-19T09:22:39.592Z,6.77
2018-08-19T09:25:10.376Z,7.27
2018-08-19T09:27:40.354Z,6.83
2018-08-19T09:30:11.408Z,6.40
2018-08-19T09:33:00.127Z,5.80
2018-08-19T09:35:31.174Z,5.50
2018-08-19T09:38:09.202Z,7.17
2018-08-19T09:40:39.394Z,5.37
2018-08-19T09:43:09.727Z,5.20
2018-08-19T09:45:41.481Z,5.50
2018-08-19T09:48:12.283Z,5.80
2018-08-19T09:50:43.763Z,5.80
2018-08-19T09:53:13.716Z,6.53
2018-08-19T09:55:45.735Z,5.93
2018-08-19T09:58:19.378Z,6.37
2018-08-19T10:00:54.613Z,6.50
2018-08-19T10:03:24.551Z,5.90
2018-08-19T10:05:54.949Z,5.50
2018-08-19T10:08:25.089Z,4.70
2018-08-19T10:10:55.439Z,5.00
2018-08-19T10:13:25.113Z,4.43
2018-08-19T10:15:54.602Z,4.53
2018-08-19T10:18:24.719Z,4.87
2018-08-19T10:20:54.700Z,5.23
2018-08-19T10:23:25.349Z,4.90
2018-08-19T10:25:55.758Z,4.60
2018-08-19T10:28:25.502Z,4.53
2018-08-19T10:30:59.482Z,4.97
2018-08-19T10:33:29.616Z,4.20
2018-08-19T10:35:59.917Z,4.70
2018-08-19T10:38:29.971Z,5.40
2018-08-19T10:41:05.434Z,4.37
2018-08-19T10:43:36.084Z,3.83
2018-08-19T10:46:06.070Z,3.87
2018-08-19T10:48:35.927Z,4.97
2018-08-19T10:51:06.135Z,3.83
2018-08-19T10:53:36.127Z,3.93
2018-08-19T10:56:06.041Z,3.93
2018-08-19T10:58:35.991Z,4.50
2018-08-19T11:01:06.017Z,3.77
2018-08-19T11:03:36.074Z,3.40
2018-08-19T11:06:06.099Z,3.80
2018-08-19T11:08:39.924Z,3.50
2018-08-19T11:11:10.141Z,3.23
2018-08-19T11:13:40.005Z,3.43
2018-08-19T11:16:09.546Z,3.77
2018-08-19T11:18:45.298Z,3.03
2018-08-19T11:21:23.946Z,3.23
2018-08-19T11:23:54.514Z,3.03
2018-08-19T11:26:24.529Z,3.13
2018-08-19T11:28:56.708Z,3.50
2018-08-19T11:31:33.824Z,3.20
2018-08-19T11:34:05.279Z,2.97
2018-08-19T11:36:40.253Z,3.80
2018-08-19T11:39:14.337Z,3.07
2018-08-19T11:41:44.647Z,3.10
2018-08-19T11:44:16.620Z,3.33
2018-08-19T11:46:46.911Z,2.80
2018-08-19T11:49:19.419Z,3.27
2018-08-19T11:51:54.861Z,3.00
2018-08-19T11:54:26.034Z,3.47
2018-08-19T11:57:02.355Z,3.17
2018-08-19T11:59:37.342Z,3.03
2018-08-19T12:02:11.480Z,2.97
2018-08-19T12:04:41.671Z,3.20
2018-08-19T12:07:11.810Z,2.90
2018-08-19T12:09:46.171Z,3.07
2018-08-19T12:12:16.040Z,3.70
2018-08-19T12:14:46.049Z,2.77
2018-08-19T12:17:16.297Z,3.10
2018-08-19T12:19:46.471Z,3.20
2018-08-19T12:22:16.721Z,4.40
2018-08-19T12:24:47.877Z,3.70
2018-08-19T12:27:19.044Z,3.30
2018-08-19T12:29:49.206Z,3.07
2018-08-19T12:32:22.950Z,3.07
2018-08-19T12:34:57.053Z,3.37
2018-08-19T12:37:28.821Z,3.70
2018-08-19T12:39:59.643Z,4.17
2018-08-19T12:42:30.221Z,3.03
2018-08-19T12:45:05.897Z,3.30
2018-08-19T12:47:36.143Z,3.10
2018-08-19T12:50:10.835Z,3.20
2018-08-19T12:52:42.053Z,3.13
2018-08-19T12:55:14.813Z,3.30
2018-08-19T12:57:45.124Z,3.13
2018-08-19T13:00:18.141Z,3.23
2018-08-19T13:02:49.550Z,3.30
2018-08-19T13:05:20.286Z,3.30
2018-08-19T13:07:49.870Z,2.87
2018-08-19T13:10:20.287Z,3.13
2018-08-19T13:12:57.289Z,3.07
2018-08-19T13:15:30.040Z,3.10
2018-08-19T13:17:59.679Z,3.30
2018-08-19T13:20:29.761Z,3.67
2018-08-19T13:23:00.436Z,3.10
2018-08-19T13:25:30.452Z,4.17
2018-08-19T13:28:00.219Z,3.43
2018-08-19T13:30:29.922Z,3.10
2018-08-19T13:32:59.841Z,3.67
2018-08-19T13:35:29.815Z,3.10
2018-08-19T13:37:59.747Z,3.80
2018-08-19T13:40:31.638Z,3.30
2018-08-19T13:43:02.094Z,3.27
2018-08-19T13:45:32.025Z,3.93
2018-08-19T13:48:02.535Z,3.13
2018-08-19T13:50:33.415Z,3.25
2018-08-19T13:53:04.736Z,3.83
2018-08-19T13:55:35.145Z,3.80
2018-08-19T13:58:06.533Z,3.10
2018-08-19T14:00:36.670Z,3.60
2018-08-19T14:03:07.749Z,3.30
2018-08-19T14:05:38.783Z,3.47
2018-08-19T14:08:08.988Z,3.23
2018-08-19T14:10:39.186Z,4.47
2018-08-19T14:13:09.447Z,3.60
2018-08-19T14:15:39.619Z,3.30
2018-08-19T14:18:09.683Z,3.80
2018-08-19T14:20:40.677Z,4.00
2018-08-19T14:23:10.759Z,3.57
2018-08-19T14:25:40.813Z,3.70
2018-08-19T14:28:11.665Z,3.58
2018-08-19T14:30:41.630Z,2.73
2018-08-19T14:33:12.022Z,3.70
2018-08-19T14:35:41.789Z,3.23
2018-08-19T14:38:12.123Z,4.10
2018-08-19T14:40:42.299Z,3.40
2018-08-19T14:43:12.149Z,3.17
2018-08-19T14:45:42.410Z,3.50
2018-08-19T14:48:12.689Z,3.47
2018-08-19T14:50:45.291Z,3.60
2018-08-19T14:53:17.055Z,3.60
2018-08-19T14:55:47.243Z,3.87
2018-08-19T14:58:17.456Z,3.37
2018-08-19T15:00:51.295Z,3.53
2018-08-19T15:03:21.799Z,3.23
2018-08-19T15:06:01.148Z,3.80
2018-08-19T15:08:34.993Z,5.03
2018-08-19T15:11:05.409Z,4.37
2018-08-19T15:13:36.195Z,4.03
2018-08-19T15:16:06.700Z,4.00
2018-08-19T15:18:38.497Z,4.23
2018-08-19T15:21:09.614Z,3.55
2018-08-19T15:23:40.297Z,4.08
2018-08-19T15:26:12.045Z,4.03
2018-08-19T15:28:43.480Z,4.08
2018-08-19T15:31:20.027Z,4.03
2018-08-19T15:33:52.677Z,4.00
2018-08-19T15:36:23.757Z,4.50
2018-08-19T15:38:53.609Z,4.40
2018-08-19T15:41:24.034Z,4.53
2018-08-19T15:43:54.503Z,4.10
2018-08-19T15:46:24.890Z,4.00
2018-08-19T15:48:56.087Z,4.00
2018-08-19T15:51:25.777Z,4.65
2018-08-19T15:53:55.415Z,5.00
2018-08-19T15:56:26.112Z,4.53
2018-08-19T15:58:55.754Z,5.35
2018-08-19T16:01:28.636Z,4.67
2018-08-19T16:04:05.363Z,6.05
2018-08-19T16:06:35.187Z,4.90
2018-08-19T16:09:08.091Z,5.17
2018-08-19T16:11:37.965Z,5.17
2018-08-19T16:14:14.558Z,5.10
2018-08-19T16:16:44.495Z,5.53
2018-08-19T16:19:14.786Z,5.43
2018-08-19T16:21:48.252Z,5.47
2018-08-19T16:24:18.913Z,5.13
2018-08-19T16:26:49.277Z,5.53
2018-08-19T16:29:19.889Z,5.27
2018-08-19T16:31:50.067Z,5.83
2018-08-19T16:34:20.602Z,5.77
2018-08-19T16:36:51.885Z,5.50
2018-08-19T16:39:22.597Z,5.43
2018-08-19T16:41:52.920Z,6.20
2018-08-19T16:44:22.704Z,5.47
2018-08-19T16:46:53.154Z,6.43
2018-08-19T16:49:23.699Z,6.43
2018-08-19T16:51:54.010Z,6.23
2018-08-19T16:54:27.092Z,5.67
2018-08-19T16:56:57.860Z,6.13
2018-08-19T16:59:28.510Z,6.13
2018-08-19T17:01:59.326Z,5.80
2018-08-19T17:04:30.022Z,6.20
2018-08-19T17:07:01.132Z,6.50
2018-08-19T17:09:31.077Z,6.47
2018-08-19T17:12:02.115Z,6.83
2018-08-19T17:14:32.334Z,6.97
2018-08-19T17:17:03.786Z,6.10
2018-08-19T17:19:34.134Z,7.00
2018-08-19T17:22:08.336Z,6.40
2018-08-19T17:24:39.034Z,7.13
2018-08-19T17:27:12.900Z,7.07
2018-08-19T17:29:43.036Z,7.10
2018-08-19T17:32:13.850Z,6.90
2018-08-19T17:34:43.927Z,7.13
2018-08-19T17:37:14.166Z,6.83
2018-08-19T17:39:44.401Z,7.07
2018-08-19T17:42:15.043Z,7.10
2018-08-19T17:44:45.845Z,7.30
2018-08-19T17:47:17.600Z,6.90
2018-08-19T17:49:48.266Z,7.63
2018-08-19T17:52:23.034Z,7.10
2018-08-19T17:54:54.234Z,7.00
2018-08-19T17:57:26.079Z,7.80
2018-08-19T17:59:57.825Z,7.53
2018-08-19T18:02:28.785Z,6.73
2018-08-19T18:05:00.739Z,7.47
2018-08-19T18:07:33.944Z,7.00
2018-08-19T18:10:07.722Z,7.43
2018-08-19T18:12:38.924Z,7.40
2018-08-19T18:15:13.186Z,7.90
2018-08-19T18:18:13.684Z,6.83
2018-08-19T18:20:46.313Z,7.57
2018-08-19T18:23:24.271Z,7.97
2018-08-19T18:25:57.073Z,7.70
2018-08-19T18:28:31.650Z,6.97
2018-08-19T18:33:52.177Z,6.57
2018-08-19T18:36:23.334Z,7.20
2018-08-19T18:38:53.175Z,7.67
2018-08-19T18:41:30.241Z,7.57
2018-08-19T18:44:01.923Z,8.00
2018-08-19T18:46:33.124Z,7.50
2018-08-19T18:49:18.089Z,7.67
2018-08-19T18:51:49.212Z,7.97
2018-08-19T18:54:32.312Z,7.60
2018-08-19T18:57:06.031Z,8.27
2018-08-19T18:59:36.683Z,7.83
2018-08-19T19:02:06.074Z,8.00
2018-08-19T19:04:36.466Z,7.60
2018-08-19T19:07:05.792Z,8.33
2018-08-19T19:09:42.168Z,8.43
2018-08-19T19:12:11.912Z,7.57
2018-08-19T19:14:41.404Z,7.77
2018-08-19T19:17:10.848Z,7.43
2018-08-19T19:19:45.958Z,7.50
2018-08-19T19:22:15.550Z,7.60
2018-08-19T19:24:45.603Z,7.50
2018-08-19T19:27:15.510Z,8.33
2018-08-19T19:29:49.942Z,7.73
2018-08-19T19:32:24.187Z,7.57
2018-08-19T19:34:53.616Z,7.70
2018-08-19T19:37:23.186Z,7.63
2018-08-19T19:40:06.200Z,7.87
2018-08-19T19:42:37.845Z,7.90
2018-08-19T19:45:08.034Z,7.20
2018-08-19T19:47:37.424Z,8.17
2018-08-19T19:50:08.140Z,7.73
2018-08-19T19:52:44.312Z,7.83
2018-08-19T19:55:14.014Z,7.57
2018-08-19T19:57:44.220Z,7.63
2018-08-19T20:00:13.895Z,8.27
2018-08-19T20:02:44.022Z,7.37
2018-08-19T20:05:18.892Z,7.70
2018-08-19T20:07:49.194Z,7.27
2018-08-19T20:10:28.874Z,8.03
2018-08-19T20:12:58.325Z,7.50
2018-08-19T20:15:27.779Z,7.63
2018-08-19T20:17:57.361Z,7.23
2018-08-19T20:20:26.711Z,8.10
2018-08-19T20:22:56.222Z,7.87
2018-08-19T20:25:25.699Z,6.90
2018-08-19T20:28:12.485Z,7.80
2018-08-19T20:30:42.054Z,8.00
2018-08-19T20:33:19.057Z,8.03
2018-08-19T20:35:48.625Z,7.37
2018-08-19T20:38:17.841Z,8.07
2018-08-19T20:40:47.050Z,8.10
2018-08-19T20:43:20.332Z,7.60
2018-08-19T20:45:49.565Z,7.90
2018-08-19T20:48:20.118Z,8.80
2018-08-19T20:50:49.942Z,7.60
2018-08-19T20:53:19.575Z,8.33
2018-08-19T20:55:49.279Z,7.30
2018-08-19T20:58:19.195Z,8.57
2018-08-19T21:00:48.405Z,8.60
2018-08-19T21:03:17.883Z,7.03
2018-08-19T21:05:47.029Z,7.50
2018-08-19T21:08:17.559Z,8.20
2018-08-19T21:10:47.851Z,8.07
2018-08-19T21:13:19.042Z,8.00
2018-08-19T21:15:51.926Z,8.40
2018-08-19T21:18:21.835Z,8.30
2018-08-19T21:20:51.343Z,8.40
2018-08-19T21:23:20.721Z,8.33
2018-08-19T21:25:55.255Z,7.90
2018-08-19T21:28:24.417Z,8.77
2018-08-19T21:30:53.643Z,8.60
2018-08-19T21:33:23.187Z,7.87
2018-08-19T21:35:54.036Z,8.80
2018-08-19T21:38:23.641Z,8.97
2018-08-19T21:40:55.907Z,8.23
2018-08-19T21:43:27.333Z,8.13
2018-08-19T21:45:57.014Z,7.87
2018-08-19T21:48:26.462Z,8.53
2018-08-19T21:50:55.983Z,9.43
2018-08-19T21:53:25.320Z,8.13
2018-08-19T21:55:54.740Z,8.30
2018-08-19T21:58:24.248Z,8.20
2018-08-19T22:01:04.041Z,7.53
2018-08-19T22:03:38.800Z,8.37
2018-08-19T22:06:09.140Z,8.43
2018-08-19T22:08:38.912Z,8.20
2018-08-19T22:11:09.087Z,8.57
2018-08-19T22:13:39.386Z,7.87
2018-08-19T22:16:08.676Z,8.33
2018-08-19T22:18:37.930Z,7.50
2018-08-19T22:21:13.980Z,7.87
2018-08-19T22:23:44.546Z,8.50
2018-08-19T22:26:15.626Z,7.77
2018-08-19T22:28:45.347Z,8.50
2018-08-19T22:31:23.894Z,8.67
2018-08-19T22:33:54.678Z,8.07
2018-08-19T22:36:24.494Z,8.40
2018-08-19T22:38:54.506Z,7.17
2018-08-19T22:41:27.084Z,8.40
2018-08-19T22:43:57.095Z,8.20
2018-08-19T22:46:27.131Z,8.27
2018-08-19T22:48:56.992Z,8.40
2018-08-19T22:51:29.960Z,7.73
2018-08-19T22:53:59.324Z,7.67
2018-08-19T22:56:28.707Z,8.00
2018-08-19T22:58:58.168Z,8.53
2018-08-19T23:01:31.833Z,7.73
2018-08-19T23:04:02.876Z,7.80
2018-08-19T23:06:33.054Z,8.40
2018-08-19T23:09:03.477Z,7.67
2018-08-19T23:11:37.854Z,7.50
2018-08-19T23:14:18.362Z,7.33
2018-08-19T23:16:47.589Z,7.83
2018-08-19T23:19:19.898Z,8.07
2018-08-19T23:21:49.408Z,8.03
2018-08-19T23:24:18.722Z,8.00
2018-08-19T23:26:48.268Z,7.90
2018-08-19T23:29:17.861Z,8.20
2018-08-19T23:31:47.727Z,7.63
2018-08-19T23:34:16.820Z,8.27
2018-08-19T23:36:46.015Z,7.57
2018-08-19T23:39:15.447Z,7.57
2018-08-19T23:41:45.327Z,8.27
2018-08-19T23:44:14.657Z,7.87
2018-08-19T23:46:43.810Z,7.53
2018-08-19T23:49:13.118Z,7.50
2018-08-19T23:51:42.435Z,8.17
2018-08-19T23:54:11.783Z,7.87
2018-08-19T23:56:40.975Z,7.93
2018-08-19T23:59:10.111Z,7.37
